Time;durP1;ratioP1;P1;durP2;ratioP2;P2;SDS_P1;SDS_P2;PMS_P1;PMS_P2;Temp;Humidity;BMP_temperature;BMP_pressure;BME280_temperature;BME280_humidity;BME280_pressure;Samples;Min_cycle;Max_cycle;Signal;HPM_P1;HPM_P2
2022/06/26 00:01:33;;;;;;;2.38;1.90;;;22.60;90.90;;;;;;5013085;28;20037;-70
2022/06/26 00:03:59;;;;;;;2.42;1.85;;;22.60;90.90;;;;;;5013137;28;20063;-71
2022/06/26 00:06:24;;;;;;;3.53;1.73;;;22.50;91.00;;;;;;5012737;28;20030;-70
2022/06/26 00:08:50;;;;;;;7.07;3.83;;;22.40;90.90;;;;;;5012712;28;20095;-69
2022/06/26 00:11:17;;;;;;;7.25;2.72;;;22.40;90.80;;;;;;5012406;28;20459;-70
2022/06/26 00:13:42;;;;;;;3.65;2.40;;;22.50;90.80;;;;;;5012442;28;20034;-69
2022/06/26 00:16:08;;;;;;;2.95;2.42;;;22.50;90.60;;;;;;5012434;28;20040;-71
2022/06/26 00:18:34;;;;;;;2.35;1.73;;;22.40;90.60;;;;;;5012991;28;20026;-70
2022/06/26 00:21:00;;;;;;;3.25;1.92;;;22.40;90.60;;;;;;5012495;28;20026;-71
2022/06/26 00:23:26;;;;;;;1.95;1.50;;;22.40;91.00;;;;;;5011500;28;20460;-72
2022/06/26 00:25:51;;;;;;;3.58;1.85;;;22.40;91.10;;;;;;5011546;28;20037;-70
2022/06/26 00:28:17;;;;;;;4.35;1.92;;;22.40;91.00;;;;;;5011299;28;20363;-70
2022/06/26 00:30:43;;;;;;;2.05;1.73;;;22.30;91.10;;;;;;5012998;28;20582;-70
2022/06/26 00:33:09;;;;;;;2.00;1.80;;;22.20;91.50;;;;;;5012289;28;20567;-70
2022/06/26 00:35:35;;;;;;;2.03;1.70;;;22.20;91.90;;;;;;5012160;28;20049;-70
2022/06/26 00:38:00;;;;;;;1.73;1.35;;;22.20;91.90;;;;;;5012207;28;20026;-71
2022/06/26 00:40:26;;;;;;;2.13;1.60;;;22.10;92.20;;;;;;5012065;28;20360;-71
2022/06/26 00:42:52;;;;;;;1.80;1.58;;;22.00;92.40;;;;;;5012449;28;20467;-70
2022/06/26 00:45:18;;;;;;;2.67;1.90;;;22.00;92.50;;;;;;5012015;28;20132;-70
2022/06/26 00:47:45;;;;;;;1.70;1.50;;;22.00;92.40;;;;;;5012109;28;20041;-70
2022/06/26 00:50:12;;;;;;;1.67;1.58;;;21.90;92.60;;;;;;5011928;28;20034;-70
2022/06/26 00:52:39;;;;;;;2.72;1.80;;;21.90;92.60;;;;;;5011713;28;20029;-69
2022/06/26 00:55:06;;;;;;;1.90;1.70;;;21.80;92.80;;;;;;5012031;28;20091;-69
2022/06/26 00:57:34;;;;;;;5.27;2.17;;;21.80;92.90;;;;;;5012536;28;20089;-71
2022/06/26 01:00:00;;;;;;;1.83;1.50;;;21.80;92.90;;;;;;5010830;28;20038;-71
2022/06/26 01:02:26;;;;;;;2.03;1.75;;;21.70;92.90;;;;;;5012013;28;20030;-70
2022/06/26 01:04:52;;;;;;;3.33;1.95;;;21.70;93.20;;;;;;5010702;28;20022;-70
2022/06/26 01:07:18;;;;;;;3.10;1.85;;;21.70;93.30;;;;;;5011900;28;20034;-70
2022/06/26 01:09:44;;;;;;;2.80;2.00;;;21.60;93.40;;;;;;5012540;28;20022;-69
2022/06/26 01:12:10;;;;;;;5.88;1.80;;;21.60;93.20;;;;;;5011708;28;20044;-70
2022/06/26 01:14:37;;;;;;;4.05;2.03;;;21.60;93.40;;;;;;5011697;28;20049;-70
2022/06/26 01:17:03;;;;;;;2.15;1.67;;;21.60;93.20;;;;;;5011601;28;20026;-70
2022/06/26 01:19:30;;;;;;;3.40;1.80;;;21.70;93.00;;;;;;5010538;28;20034;-69
2022/06/26 01:21:56;;;;;;;4.63;2.20;;;21.70;93.00;;;;;;5011960;28;20025;-71
2022/06/26 01:24:22;;;;;;;5.10;1.95;;;21.60;93.30;;;;;;5011531;28;20045;-70
2022/06/26 01:26:48;;;;;;;2.15;1.50;;;21.60;93.40;;;;;;5011319;28;20095;-71
2022/06/26 01:29:14;;;;;;;2.10;1.90;;;21.60;93.40;;;;;;5011359;28;20034;-71
2022/06/26 01:31:40;;;;;;;2.75;2.00;;;21.50;93.60;;;;;;5011227;28;20133;-70
2022/06/26 01:34:07;;;;;;;3.35;1.90;;;21.50;93.30;;;;;;5010993;28;20124;-70
2022/06/26 01:36:33;;;;;;;2.83;1.90;;;21.50;93.20;;;;;;5026003;28;20506;-71
2022/06/26 01:38:59;;;;;;;3.28;1.75;;;21.50;93.50;;;;;;5030919;28;20100;-71
2022/06/26 01:41:25;;;;;;;3.17;1.98;;;21.50;93.60;;;;;;5030003;28;20029;-71
2022/06/26 01:43:51;;;;;;;7.32;2.20;;;21.60;93.50;;;;;;5031107;28;20029;-70
2022/06/26 01:46:17;;;;;;;6.00;2.20;;;21.50;93.60;;;;;;5030866;28;20040;-71
2022/06/26 01:48:43;;;;;;;2.95;1.70;;;21.50;93.60;;;;;;5031429;28;20028;-72
2022/06/26 01:51:09;;;;;;;2.75;1.77;;;21.50;93.50;;;;;;5030656;28;20061;-70
2022/06/26 01:53:36;;;;;;;3.80;2.22;;;21.50;93.70;;;;;;5030919;28;20037;-70
2022/06/26 01:56:04;;;;;;;3.10;1.85;;;21.40;93.60;;;;;;5029708;28;20022;-71
2022/06/26 01:58:30;;;;;;;5.90;2.28;;;21.40;93.50;;;;;;5029561;28;20033;-71
2022/06/26 02:00:56;;;;;;;1.98;1.75;;;21.50;93.30;;;;;;5031522;28;20032;-71
2022/06/26 02:03:23;;;;;;;2.58;1.90;;;21.50;93.00;;;;;;5031032;28;20056;-71
2022/06/26 02:05:50;;;;;;;3.50;2.00;;;21.50;92.90;;;;;;5030763;28;20037;-70
2022/06/26 02:08:16;;;;;;;2.22;1.75;;;21.40;92.80;;;;;;5030702;28;20148;-70
2022/06/26 02:13:36;;;;;;;4.88;2.03;;;21.40;93.40;;;;;;5030713;28;20036;-70
2022/06/26 02:16:05;;;;;;;3.10;1.70;;;21.40;93.60;;;;;;5030797;28;20038;-70
2022/06/26 02:18:31;;;;;;;5.43;1.75;;;21.30;94.10;;;;;;5030949;28;20083;-70
2022/06/26 02:20:57;;;;;;;2.42;1.90;;;21.20;94.30;;;;;;5030424;28;20039;-70
2022/06/26 02:23:23;;;;;;;2.72;1.67;;;21.20;94.40;;;;;;5030456;28;20108;-70
2022/06/26 02:25:50;;;;;;;4.35;2.10;;;21.20;94.30;;;;;;5030653;28;20099;-70
2022/06/26 02:28:18;;;;;;;4.53;2.30;;;21.10;94.20;;;;;;5029367;28;20035;-70
2022/06/26 02:30:44;;;;;;;2.42;1.60;;;21.10;93.60;;;;;;5031116;28;20551;-70
2022/06/26 02:33:11;;;;;;;1.95;1.60;;;21.20;93.70;;;;;;5030469;28;20418;-70
2022/06/26 02:35:36;;;;;;;1.95;1.73;;;21.10;93.50;;;;;;5030253;28;20140;-70
2022/06/26 02:38:03;;;;;;;2.55;1.85;;;21.10;93.60;;;;;;5030326;28;20171;-70
2022/06/26 02:40:30;;;;;;;2.75;1.75;;;21.10;93.70;;;;;;5029473;28;20387;-71
2022/06/26 02:42:56;;;;;;;3.88;1.95;;;21.10;94.20;;;;;;5031050;28;20045;-71
2022/06/26 02:45:24;;;;;;;2.95;2.00;;;21.10;94.40;;;;;;5030467;28;20037;-71
2022/06/26 02:47:50;;;;;;;3.35;2.17;;;21.00;94.40;;;;;;5030546;28;20041;-71
2022/06/26 02:50:16;;;;;;;4.63;2.22;;;21.00;94.10;;;;;;5031534;28;20029;-71
2022/06/26 02:52:42;;;;;;;2.50;2.03;;;21.00;94.20;;;;;;5034100;28;20362;-70
2022/06/26 02:55:09;;;;;;;8.75;1.95;;;20.90;94.60;;;;;;5034040;28;20021;-69
2022/06/26 02:57:34;;;;;;;4.22;1.98;;;20.90;94.70;;;;;;5034790;28;20028;-71
2022/06/26 03:00:00;;;;;;;4.13;2.20;;;20.90;94.50;;;;;;5034004;28;20029;-71
2022/06/26 03:02:26;;;;;;;3.03;2.00;;;20.80;94.80;;;;;;5034076;28;20092;-70
2022/06/26 03:04:53;;;;;;;2.53;1.85;;;20.80;94.80;;;;;;5034074;28;20029;-69
2022/06/26 03:07:19;;;;;;;3.97;1.70;;;20.80;94.80;;;;;;5033847;28;20045;-69
2022/06/26 03:09:45;;;;;;;4.82;2.35;;;20.80;94.80;;;;;;5033430;28;20036;-69
2022/06/26 03:12:11;;;;;;;2.40;2.13;;;20.70;94.90;;;;;;5032687;28;20039;-70
2022/06/26 03:14:37;;;;;;;2.85;2.30;;;20.70;95.30;;;;;;5033899;28;20030;-70
2022/06/26 03:17:03;;;;;;;4.25;2.20;;;20.60;95.10;;;;;;5033738;28;20048;-70
2022/06/26 03:19:29;;;;;;;2.72;1.90;;;20.60;95.20;;;;;;5033723;28;20430;-70
2022/06/26 03:21:55;;;;;;;2.65;2.20;;;20.60;95.20;;;;;;5034062;28;20025;-70
2022/06/26 03:24:20;;;;;;;4.40;2.00;;;20.60;95.30;;;;;;5033750;28;20021;-71
2022/06/26 03:26:47;;;;;;;7.20;2.47;;;20.60;95.30;;;;;;5033408;28;20490;-70
2022/06/26 03:29:13;;;;;;;6.60;2.15;;;20.50;95.40;;;;;;5033509;28;20456;-70
2022/06/26 03:31:39;;;;;;;2.20;2.00;;;20.50;95.40;;;;;;5033357;28;20052;-71
2022/06/26 03:34:05;;;;;;;4.40;2.53;;;20.60;95.30;;;;;;5033305;28;20099;-71
2022/06/26 03:36:32;;;;;;;3.13;2.15;;;20.50;95.50;;;;;;5033899;28;20487;-70
2022/06/26 03:38:57;;;;;;;2.58;2.05;;;20.50;95.80;;;;;;5033485;28;20113;-69
2022/06/26 03:41:23;;;;;;;2.78;2.33;;;20.40;96.10;;;;;;5033277;28;20120;-69
2022/06/26 03:43:49;;;;;;;3.25;1.92;;;20.40;95.80;;;;;;5033071;28;20508;-70
2022/06/26 03:46:15;;;;;;;2.10;1.90;;;20.40;95.90;;;;;;5033124;28;20034;-71
2022/06/26 03:48:41;;;;;;;3.75;2.35;;;20.40;96.00;;;;;;5033448;28;20029;-70
2022/06/26 03:51:08;;;;;;;3.42;2.20;;;20.30;96.10;;;;;;5033105;28;20064;-71
2022/06/26 03:53:34;;;;;;;3.88;2.20;;;20.30;95.90;;;;;;5033081;28;20459;-70
2022/06/26 03:56:00;;;;;;;2.45;2.17;;;20.30;95.70;;;;;;5032962;28;20506;-71
2022/06/26 03:58:26;;;;;;;5.15;2.20;;;20.30;95.70;;;;;;5032962;28;20347;-70
2022/06/26 04:00:52;;;;;;;3.25;2.22;;;20.30;95.90;;;;;;5031997;28;20112;-70
2022/06/26 04:03:18;;;;;;;3.50;2.47;;;20.30;96.20;;;;;;5031897;28;20456;-71
2022/06/26 04:05:44;;;;;;;8.75;2.47;;;20.30;96.10;;;;;;5032983;28;20529;-71
2022/06/26 04:08:10;;;;;;;5.97;2.53;;;20.40;96.20;;;;;;5032801;28;20359;-70
2022/06/26 04:10:37;;;;;;;4.22;2.97;;;20.40;96.20;;;;;;5032641;28;20119;-70
2022/06/26 04:13:05;;;;;;;4.00;2.53;;;20.30;96.00;;;;;;5033071;28;20073;-70
2022/06/26 04:15:32;;;;;;;2.38;2.10;;;20.40;96.10;;;;;;5032106;28;20065;-71
2022/06/26 04:17:58;;;;;;;4.05;2.22;;;20.40;96.00;;;;;;5032633;28;20033;-71
2022/06/26 04:20:25;;;;;;;4.28;2.40;;;20.40;96.10;;;;;;5032825;28;20033;-71
2022/06/26 04:23:04;;;;;;;3.20;2.10;;;20.50;96.10;;;;;;5032561;28;20029;-70
2022/06/26 04:25:31;;;;;;;2.70;2.35;;;20.50;96.20;;;;;;5031412;28;20033;-71
2022/06/26 04:27:58;;;;;;;3.40;2.50;;;20.50;96.30;;;;;;5032952;28;20028;-70
2022/06/26 04:30:24;;;;;;;7.03;2.35;;;20.60;96.30;;;;;;5032388;28;20080;-71
2022/06/26 04:32:50;;;;;;;3.92;2.45;;;20.60;96.50;;;;;;5032454;28;20025;-71
2022/06/26 04:35:16;;;;;;;4.60;2.58;;;20.60;96.50;;;;;;5031062;28;20038;-71
2022/06/26 04:37:42;;;;;;;3.58;2.35;;;20.70;96.50;;;;;;5031072;28;20048;-71
2022/06/26 04:40:10;;;;;;;5.32;2.33;;;20.70;96.30;;;;;;5032070;28;20472;-70
2022/06/26 04:42:37;;;;;;;4.30;2.63;;;20.70;96.20;;;;;;5032527;28;20040;-70
2022/06/26 04:45:03;;;;;;;3.65;2.20;;;20.70;96.20;;;;;;5032066;28;20114;-71
2022/06/26 04:47:29;;;;;;;3.17;2.50;;;20.80;96.20;;;;;;5031884;28;20463;-71
2022/06/26 04:49:55;;;;;;;5.22;2.40;;;20.80;96.10;;;;;;5031794;28;20187;-71
2022/06/26 04:52:20;;;;;;;3.10;2.17;;;20.90;96.00;;;;;;5031936;28;20025;-71
2022/06/26 04:54:46;;;;;;;3.28;2.33;;;21.00;95.80;;;;;;5032326;28;20032;-72
2022/06/26 04:57:12;;;;;;;3.80;2.53;;;21.00;95.80;;;;;;5031841;28;20029;-71
2022/06/26 04:59:39;;;;;;;4.53;2.40;;;21.10;95.60;;;;;;5030950;28;20030;-71
2022/06/26 05:02:06;;;;;;;5.63;2.45;;;21.10;95.50;;;;;;5031657;28;20039;-71
2022/06/26 05:04:32;;;;;;;3.30;2.45;;;21.20;95.50;;;;;;5030488;28;20021;-71
2022/06/26 05:06:58;;;;;;;3.17;2.20;;;21.30;95.60;;;;;;5032120;28;20459;-71
2022/06/26 05:09:24;;;;;;;5.25;2.40;;;21.20;95.30;;;;;;5030574;28;20054;-71
2022/06/26 05:11:50;;;;;;;3.60;2.13;;;21.30;95.50;;;;;;5031156;28;20045;-72
2022/06/26 05:14:17;;;;;;;3.33;2.25;;;21.40;95.30;;;;;;5031684;28;20044;-72
2022/06/26 05:16:43;;;;;;;3.20;2.25;;;21.40;95.20;;;;;;5030549;28;20112;-71
2022/06/26 05:19:08;;;;;;;3.47;2.22;;;21.60;95.20;;;;;;5031673;28;20104;-70
2022/06/26 05:21:34;;;;;;;6.63;2.65;;;21.60;95.00;;;;;;5031902;28;20367;-72
2022/06/26 05:24:00;;;;;;;6.55;2.92;;;21.70;94.90;;;;;;5031402;28;20434;-71
2022/06/26 05:26:26;;;;;;;6.93;3.65;;;21.70;94.80;;;;;;5030260;28;20035;-70
2022/06/26 05:28:52;;;;;;;5.70;3.10;;;21.80;94.60;;;;;;5031284;28;20030;-71
2022/06/26 05:31:18;;;;;;;4.70;2.50;;;21.90;94.50;;;;;;5031508;28;20228;-70
2022/06/26 05:33:44;;;;;;;15.38;7.75;;;22.00;94.40;;;;;;5031551;28;20017;-71
2022/06/26 05:36:10;;;;;;;4.38;2.92;;;22.10;94.00;;;;;;5031340;28;20041;-70
2022/06/26 05:38:37;;;;;;;5.72;2.97;;;22.20;93.90;;;;;;5031483;28;20037;-70
2022/06/26 05:41:06;;;;;;;5.27;2.20;;;22.30;93.80;;;;;;5030934;28;20125;-70
2022/06/26 05:43:32;;;;;;;4.57;1.83;;;22.40;93.50;;;;;;5031006;28;20132;-70
2022/06/26 05:45:58;;;;;;;5.13;2.10;;;22.50;93.10;;;;;;5030548;28;20053;-70
2022/06/26 05:48:24;;;;;;;5.30;2.35;;;22.50;92.80;;;;;;5031153;28;20091;-71
2022/06/26 05:50:51;;;;;;;3.28;1.90;;;22.60;92.70;;;;;;5031260;28;20080;-71
2022/06/26 05:53:18;;;;;;;2.75;2.42;;;22.70;92.50;;;;;;5029997;28;20044;-72
2022/06/26 05:55:43;;;;;;;10.15;4.63;;;22.90;92.50;;;;;;5031180;28;20036;-71
2022/06/26 05:58:09;;;;;;;3.33;1.83;;;23.00;92.50;;;;;;5029795;28;20026;-70
2022/06/26 06:00:35;;;;;;;1.75;1.65;;;23.20;92.00;;;;;;5030282;28;20060;-70
2022/06/26 06:03:02;;;;;;;5.70;1.75;;;23.30;91.90;;;;;;5030862;28;20116;-71
2022/06/26 06:05:28;;;;;;;3.42;1.70;;;23.40;91.60;;;;;;5029969;28;20033;-69
2022/06/26 06:07:55;;;;;;;2.38;1.83;;;23.50;91.50;;;;;;5031172;28;20025;-70
2022/06/26 06:10:21;;;;;;;2.25;1.60;;;23.50;91.30;;;;;;5030816;28;20367;-70
2022/06/26 06:12:48;;;;;;;4.40;1.80;;;23.50;91.30;;;;;;5031276;28;20026;-71
2022/06/26 06:15:14;;;;;;;1.55;1.45;;;23.50;91.20;;;;;;5030779;28;20362;-70
2022/06/26 06:17:44;;;;;;;5.22;1.75;;;23.50;91.10;;;;;;5030828;28;20034;-70
2022/06/26 06:20:19;;;;;;;1.63;1.52;;;23.60;91.00;;;;;;5029782;28;20461;-69
2022/06/26 06:23:04;;;;;;;6.97;1.63;;;23.60;90.70;;;;;;5030713;28;20033;-70
2022/06/26 06:25:30;;;;;;;3.90;1.70;;;23.60;90.80;;;;;;5033430;28;20029;-69
2022/06/26 06:27:56;;;;;;;2.05;1.85;;;23.70;90.90;;;;;;5035207;28;20031;-70
2022/06/26 06:30:23;;;;;;;5.10;2.33;;;23.80;90.90;;;;;;5033528;28;20030;-70
2022/06/26 06:32:48;;;;;;;3.35;2.42;;;23.90;90.70;;;;;;5033506;28;20459;-69
2022/06/26 06:35:15;;;;;;;4.82;2.65;;;24.10;90.70;;;;;;5034467;28;20133;-69
2022/06/26 06:37:43;;;;;;;2.00;1.80;;;24.10;90.40;;;;;;5033447;28;20228;-70
2022/06/26 06:40:10;;;;;;;1.80;1.70;;;24.20;90.10;;;;;;5034408;28;20033;-71
2022/06/26 06:42:36;;;;;;;5.03;2.03;;;24.20;89.00;;;;;;5034823;28;20037;-70
2022/06/26 06:45:03;;;;;;;3.28;1.85;;;24.20;88.70;;;;;;5034692;28;20025;-70
2022/06/26 06:47:29;;;;;;;3.33;1.73;;;24.20;88.40;;;;;;5033453;28;20034;-70
2022/06/26 06:49:55;;;;;;;2.92;1.95;;;24.30;88.70;;;;;;5034481;28;20452;-71
2022/06/26 06:52:20;;;;;;;1.88;1.70;;;24.40;87.20;;;;;;5034201;28;20317;-70
2022/06/26 06:54:46;;;;;;;2.97;2.08;;;24.40;86.00;;;;;;5035054;28;20022;-70
2022/06/26 06:57:13;;;;;;;3.42;1.60;;;24.40;85.50;;;;;;5034302;28;20021;-70
2022/06/26 06:59:39;;;;;;;3.97;1.92;;;24.50;85.90;;;;;;5034330;28;20045;-70
2022/06/26 07:02:04;;;;;;;2.05;1.40;;;24.50;85.00;;;;;;5033011;28;20037;-70
2022/06/26 07:04:30;;;;;;;2.05;1.60;;;24.60;85.40;;;;;;5034035;28;20029;-70
2022/06/26 07:06:56;;;;;;;1.73;1.40;;;24.60;85.20;;;;;;5033316;28;20029;-68
2022/06/26 07:09:22;;;;;;;2.03;1.50;;;24.70;84.30;;;;;;5034000;28;20037;-67
2022/06/26 07:11:49;;;;;;;4.35;1.73;;;24.70;83.90;;;;;;5033834;28;20060;-68
2022/06/26 07:14:14;;;;;;;2.85;1.40;;;24.80;84.40;;;;;;5033910;28;20525;-68
2022/06/26 07:16:40;;;;;;;1.88;1.17;;;24.90;84.40;;;;;;5033901;28;20267;-68
2022/06/26 07:19:06;;;;;;;1.88;1.30;;;25.00;83.90;;;;;;5033713;28;20037;-68
2022/06/26 07:21:32;;;;;;;2.38;1.80;;;25.00;84.00;;;;;;5034139;28;20108;-68
2022/06/26 07:23:57;;;;;;;2.63;1.55;;;24.90;83.90;;;;;;5032554;28;20479;-69
2022/06/26 07:26:23;;;;;;;3.10;2.10;;;24.90;84.30;;;;;;5033847;28;20104;-69
2022/06/26 07:28:49;;;;;;;3.13;2.00;;;24.70;84.70;;;;;;5033644;28;20037;-68
2022/06/26 07:31:14;;;;;;;2.70;1.80;;;24.90;85.40;;;;;;5033994;28;20499;-68
2022/06/26 07:36:24;;;;;;;1.77;1.63;;;24.70;86.10;;;;;;5034033;28;20199;-68
2022/06/26 07:38:50;;;;;;;2.40;1.98;;;24.80;86.40;;;;;;5036402;28;20064;-67
2022/06/26 07:41:16;;;;;;;2.08;1.88;;;24.90;86.60;;;;;;5036567;28;20033;-68
2022/06/26 07:43:42;;;;;;;5.57;2.10;;;24.90;86.50;;;;;;5036843;28;20029;-67
2022/06/26 07:46:07;;;;;;;4.53;2.70;;;24.90;86.50;;;;;;5036685;28;20375;-69
2022/06/26 07:48:33;;;;;;;5.22;2.47;;;25.00;86.60;;;;;;5036169;28;20101;-69
2022/06/26 07:51:00;;;;;;;4.35;2.35;;;25.10;86.90;;;;;;5034251;28;20744;-69
2022/06/26 07:53:26;;;;;;;5.35;2.33;;;25.20;86.40;;;;;;5035347;28;20114;-69
2022/06/26 07:55:52;;;;;;;4.00;2.70;;;25.20;86.50;;;;;;5034522;28;20105;-70
2022/06/26 07:58:18;;;;;;;3.70;2.70;;;25.20;86.40;;;;;;5033794;28;20030;-66
2022/06/26 08:00:44;;;;;;;3.22;2.60;;;25.20;85.90;;;;;;5033365;28;20087;-68
2022/06/26 08:03:11;;;;;;;3.85;2.33;;;25.30;86.00;;;;;;5032989;28;20037;-67
2022/06/26 08:05:38;;;;;;;2.65;2.45;;;25.50;85.10;;;;;;5033093;28;20171;-67
2022/06/26 08:08:05;;;;;;;5.43;2.67;;;25.60;84.50;;;;;;5031809;28;20355;-68
2022/06/26 08:10:31;;;;;;;4.88;2.45;;;25.80;84.70;;;;;;5032738;28;20145;-68
2022/06/26 08:12:57;;;;;;;5.68;2.90;;;26.00;84.10;;;;;;5033249;28;20469;-67
2022/06/26 08:15:24;;;;;;;3.10;2.30;;;26.30;82.60;;;;;;5032835;28;20131;-68
2022/06/26 08:17:50;;;;;;;4.15;2.70;;;26.80;81.90;;;;;;5031462;28;20041;-69
2022/06/26 08:20:16;;;;;;;3.00;1.90;;;27.20;80.50;;;;;;5031696;28;20041;-68
2022/06/26 08:22:42;;;;;;;4.13;2.20;;;27.60;78.70;;;;;;5032552;28;20531;-69
2022/06/26 08:25:08;;;;;;;5.28;2.35;;;27.70;79.10;;;;;;5031362;28;20172;-70
2022/06/26 08:27:34;;;;;;;3.55;2.20;;;27.80;77.50;;;;;;5031757;28;20021;-71
2022/06/26 08:30:02;;;;;;;2.78;2.30;;;28.40;76.50;;;;;;5032406;28;20283;-68
2022/06/26 08:32:27;;;;;;;2.85;2.35;;;28.30;76.00;;;;;;5032658;28;20030;-69
2022/06/26 08:34:53;;;;;;;2.63;2.20;;;28.70;75.80;;;;;;5031201;28;20120;-69
2022/06/26 08:37:19;;;;;;;4.80;2.08;;;29.50;73.10;;;;;;5032426;28;20049;-69
2022/06/26 08:39:44;;;;;;;5.45;2.03;;;30.10;72.20;;;;;;5033069;28;20021;-70
2022/06/26 08:42:10;;;;;;;5.65;2.22;;;30.90;69.70;;;;;;5032313;28;20112;-72
2022/06/26 08:44:43;;;;;;;2.55;1.60;;;30.90;68.10;;;;;;5032366;28;20425;-70
2022/06/26 08:47:13;;;;;;;2.03;1.67;;;31.50;65.20;;;;;;5030444;28;20436;-68
2022/06/26 08:49:43;;;;;;;4.55;1.70;;;31.50;64.60;;;;;;5032122;28;20352;-71
2022/06/26 08:52:13;;;;;;;1.50;1.40;;;32.20;63.10;;;;;;5032110;28;20103;-69
2022/06/26 08:57:24;;;;;;;1.92;1.65;;;33.00;59.70;;;;;;5031981;28;20395;-67
2022/06/26 08:59:49;;;;;;;5.63;1.88;;;33.70;60.30;;;;;;5031970;28;20124;-68
2022/06/26 09:02:15;;;;;;;2.97;2.03;;;33.10;59.60;;;;;;5030703;28;20033;-69
2022/06/26 09:04:41;;;;;;;4.07;1.70;;;33.50;59.10;;;;;;5031874;28;20030;-69
2022/06/26 09:07:07;;;;;;;1.42;1.33;;;33.60;58.20;;;;;;5031495;28;20471;-69
2022/06/26 09:09:38;;;;;;;3.20;1.73;;;33.90;57.20;;;;;;5030918;28;20025;-70
2022/06/26 09:12:04;;;;;;;4.80;1.48;;;33.50;57.30;;;;;;5031494;28;20025;-69
2022/06/26 09:14:30;;;;;;;2.15;1.50;;;32.60;57.90;;;;;;5031572;28;20033;-75
2022/06/26 09:16:57;;;;;;;2.95;1.67;;;32.20;57.50;;;;;;5031667;28;20036;-69
2022/06/26 09:19:27;;;;;;;6.10;1.77;;;32.50;57.70;;;;;;5031529;28;20037;-70
2022/06/26 09:22:11;;;;;;;4.70;1.50;;;32.50;57.90;;;;;;5031994;28;20044;-70
2022/06/26 09:24:39;;;;;;;1.70;1.60;;;31.60;59.10;;;;;;5031567;28;20026;-69
2022/06/26 09:27:13;;;;;;;3.00;1.75;;;31.50;60.00;;;;;;5031883;28;20061;-69
2022/06/26 09:29:40;;;;;;;1.63;1.52;;;31.30;60.60;;;;;;5031708;28;20034;-71
2022/06/26 09:32:11;;;;;;;2.30;1.73;;;31.30;60.40;;;;;;5030223;28;20041;-70
2022/06/26 09:34:37;;;;;;;2.97;1.70;;;31.20;60.70;;;;;;5031404;28;20057;-70
2022/06/26 09:37:05;;;;;;;3.17;1.73;;;30.90;61.80;;;;;;5031336;28;20534;-69
2022/06/26 09:39:31;;;;;;;2.65;1.52;;;31.10;62.60;;;;;;5031556;28;20121;-68
2022/06/26 09:42:02;;;;;;;3.75;1.95;;;31.10;62.00;;;;;;5031304;28;20029;-70
2022/06/26 09:44:28;;;;;;;2.90;1.98;;;31.20;62.10;;;;;;5031293;28;20025;-69
2022/06/26 09:46:54;;;;;;;5.30;1.63;;;31.10;61.90;;;;;;5030978;28;20033;-69
2022/06/26 09:49:20;;;;;;;2.00;1.30;;;30.60;60.10;;;;;;5031083;28;20107;-69
2022/06/26 09:51:47;;;;;;;3.80;1.42;;;30.60;59.60;;;;;;5031548;28;20064;-71
2022/06/26 09:54:14;;;;;;;4.80;1.63;;;30.60;60.10;;;;;;5031291;28;20132;-69
2022/06/26 09:56:40;;;;;;;3.03;1.87;;;30.10;60.80;;;;;;5030195;28;20545;-69
2022/06/26 09:59:07;;;;;;;7.15;1.90;;;30.00;62.10;;;;;;5030870;28;20044;-69
2022/06/26 10:07:04;;;;;;;3.75;1.90;;;29.70;63.50;;;;;;5030807;28;20036;-68
2022/06/26 10:09:30;;;;;;;;;;;30.10;63.50;;;;;;5032081;28;20131;-69
2022/06/26 10:12:00;;;;;;;2.13;1.58;;;30.10;62.40;;;;;;5030860;28;19963;-68
2022/06/26 10:14:38;;;;;;;4.13;1.45;;;29.90;63.30;;;;;;5030921;28;20022;-68
2022/06/26 10:17:07;;;;;;;1.60;1.45;;;29.60;62.90;;;;;;5029704;28;20072;-68
2022/06/26 10:19:42;;;;;;;2.75;1.70;;;29.00;64.70;;;;;;5030933;28;20022;-66
2022/06/26 10:22:08;;;;;;;2.55;1.67;;;29.20;65.40;;;;;;5030747;28;20037;-67
2022/06/26 10:24:34;;;;;;;2.53;2.08;;;29.20;65.00;;;;;;5031141;28;20028;-66
2022/06/26 10:27:03;;;;;;;2.65;1.60;;;29.20;65.10;;;;;;5030735;28;20038;-70
2022/06/26 10:29:36;;;;;;;5.28;1.63;;;29.20;65.20;;;;;;5030740;28;20052;-71
2022/06/26 10:32:03;;;;;;;4.97;2.25;;;29.40;65.70;;;;;;5029662;28;20372;-69
2022/06/26 10:34:29;;;;;;;1.95;1.77;;;29.70;65.20;;;;;;5030583;28;20050;-69
2022/06/26 10:37:04;;;;;;;3.45;1.75;;;29.60;65.40;;;;;;5031469;28;20025;-70
2022/06/26 10:39:56;;;;;;;4.57;1.90;;;29.30;65.30;;;;;;5030662;28;20505;-70
2022/06/26 10:45:32;;;;;;;4.55;2.03;;;29.20;67.50;;;;;;5030606;28;20124;-75
2022/06/26 10:48:04;;;;;;;6.18;2.45;;;29.50;67.30;;;;;;5029495;28;20099;-70
2022/06/26 10:50:39;;;;;;;3.00;1.83;;;29.50;66.30;;;;;;5029413;28;20499;-72
2022/06/26 10:53:28;;;;;;;3.22;2.00;;;29.60;65.90;;;;;;5030538;28;20109;-72
2022/06/26 10:55:59;;;;;;;5.35;2.20;;;29.60;65.50;;;;;;5030483;28;20030;-70
2022/06/26 10:58:30;;;;;;;2.53;1.70;;;29.50;65.40;;;;;;5029355;28;20775;-72
2022/06/26 11:01:00;;;;;;;3.50;1.98;;;29.40;66.00;;;;;;5030804;28;20033;-71
2022/06/26 11:03:27;;;;;;;3.88;2.05;;;29.40;66.60;;;;;;5029303;28;20124;-71
2022/06/26 11:06:00;;;;;;;2.60;1.77;;;29.50;67.30;;;;;;5029529;28;20379;-73
2022/06/26 11:08:35;;;;;;;3.60;2.42;;;29.40;67.60;;;;;;5030501;28;20026;-70
2022/06/26 11:11:05;;;;;;;3.17;2.03;;;29.70;66.60;;;;;;5032090;28;20048;-71
2022/06/26 11:13:31;;;;;;;3.78;2.03;;;29.80;66.00;;;;;;5034281;28;20040;-71
2022/06/26 11:15:57;;;;;;;2.80;1.50;;;29.60;64.70;;;;;;5034474;28;20104;-70
2022/06/26 11:18:23;;;;;;;4.30;2.03;;;29.80;64.80;;;;;;5032979;28;20117;-70
2022/06/26 11:20:51;;;;;;;3.28;2.50;;;29.80;65.40;;;;;;5034106;28;20075;-70
2022/06/26 11:23:26;;;;;;;4.80;2.17;;;29.80;65.70;;;;;;5032833;28;20037;-70
2022/06/26 11:26:01;;;;;;;5.03;2.45;;;29.80;66.10;;;;;;5033701;28;20026;-70
2022/06/26 11:28:31;;;;;;;4.63;2.50;;;29.30;66.90;;;;;;5034042;28;20040;-71
2022/06/26 11:30:58;;;;;;;6.38;2.33;;;29.20;68.20;;;;;;5034228;28;20029;-70
2022/06/26 11:33:26;;;;;;;9.77;3.00;;;28.90;68.70;;;;;;5033925;28;20040;-71
2022/06/26 11:35:53;;;;;;;;;;;29.00;69.00;;;;;;5034270;28;20271;-71
2022/06/26 11:38:19;;;;;;;;;;;28.90;69.30;;;;;;5034448;28;19924;-71
2022/06/26 11:40:46;;;;;;;;;;;28.70;70.10;;;;;;5032706;28;19913;-71
2022/06/26 11:43:12;;;;;;;;;;;28.70;70.40;;;;;;5033927;28;19913;-72
2022/06/26 11:45:40;;;;;;;;;;;28.60;70.70;;;;;;5033231;28;20126;-72
2022/06/26 11:48:12;;;;;;;;;;;28.60;70.70;;;;;;5032772;28;19909;-71
2022/06/26 11:50:37;;;;;;;;;;;28.50;71.40;;;;;;5033755;28;19913;-71
2022/06/26 11:53:04;;;;;;;;;;;28.40;71.50;;;;;;5033521;28;19944;-70
2022/06/26 11:55:30;;;;;;;;;;;28.20;71.90;;;;;;5033561;28;20228;-70
2022/06/26 11:57:56;;;;;;;;;;;28.20;71.90;;;;;;5033971;28;20274;-70
2022/06/26 12:00:22;;;;;;;;;;;28.00;72.20;;;;;;5033420;28;19988;-68
2022/06/26 12:02:49;;;;;;;;;;;27.80;72.70;;;;;;5032379;28;20263;-68
2022/06/26 12:05:25;;;;;;;;;;;27.60;73.30;;;;;;5032539;28;19909;-67
2022/06/26 12:07:52;;;;;;;;;;;27.40;74.10;;;;;;5033813;28;19986;-67
2022/06/26 12:10:43;;;;;;;;;;;27.30;74.90;;;;;;5032371;28;19905;-70
2022/06/26 12:13:19;;;;;;;;;;;27.30;74.60;;;;;;5032814;28;19916;-69
2022/06/26 12:15:44;;;;;;;;;;;27.40;74.60;;;;;;5033582;28;19913;-67
2022/06/26 12:18:10;;;;;;;;;;;27.10;75.40;;;;;;5033360;28;19917;-68
2022/06/26 12:20:39;;;;;;;;;;;27.30;75.30;;;;;;5033163;28;19909;-71
2022/06/26 12:23:06;;;;;;;;;;;27.30;75.20;;;;;;5031849;28;19913;-71
2022/06/26 12:25:33;;;;;;;;;;;27.40;75.70;;;;;;5033164;28;19909;-70
2022/06/26 12:27:59;;;;;;;;;;;27.60;75.00;;;;;;5032440;28;19935;-70
2022/06/26 12:30:29;;;;;;;;;;;27.20;75.40;;;;;;5032890;28;20000;-71
2022/06/26 12:32:55;;;;;;;;;;;27.40;75.70;;;;;;5033022;28;19913;-72
2022/06/26 12:35:21;;;;;;;;;;;27.50;75.90;;;;;;5031759;28;20338;-71
2022/06/26 12:37:46;;;;;;;;;;;27.70;75.20;;;;;;5032661;28;19967;-71
2022/06/26 12:40:12;;;;;;;;;;;27.80;74.60;;;;;;5032979;28;19905;-72
2022/06/26 12:42:38;;;;;;;;;;;27.90;74.30;;;;;;5032419;28;19905;-71
2022/06/26 12:45:04;;;;;;;;;;;27.90;73.40;;;;;;5033129;28;19909;-72
2022/06/26 12:47:30;;;;;;;;;;;28.00;73.90;;;;;;5031516;28;19970;-71
2022/06/26 12:49:55;;;;;;;;;;;28.10;73.50;;;;;;5032765;28;19913;-71
2022/06/26 12:52:20;;;;;;;;;;;28.00;73.40;;;;;;5032226;28;19920;-71
2022/06/26 12:54:46;;;;;;;;;;;27.90;73.10;;;;;;5031785;28;19917;-71
2022/06/26 12:57:12;;;;;;;;;;;27.90;73.30;;;;;;5032361;28;20354;-72
2022/06/26 12:59:37;;;;;;;;;;;28.20;73.20;;;;;;5032336;28;20358;-72
2022/06/26 13:02:03;;;;;;;;;;;28.30;72.30;;;;;;5032443;28;19909;-72
2022/06/26 13:04:28;;;;;;;;;;;28.40;72.80;;;;;;5032575;28;20335;-72
2022/06/26 13:06:54;;;;;;;;;;;28.50;72.30;;;;;;5032598;28;20339;-72
2022/06/26 13:09:20;;;;;;;;;;;28.40;72.20;;;;;;5032264;28;20406;-73
2022/06/26 13:11:45;;;;;;;;;;;28.30;72.00;;;;;;5032339;28;19925;-71
2022/06/26 13:14:11;;;;;;;;;;;28.20;72.50;;;;;;5031985;28;19909;-72